createdAt,value
2022-09-20T00:01:49.425Z,99.90
2022-09-20T00:04:18.307Z,99.90
2022-09-20T00:06:47.467Z,99.90
2022-09-20T00:09:16.375Z,99.90
2022-09-20T00:11:46.498Z,99.90
2022-09-20T00:14:15.469Z,99.90
2022-09-20T00:16:44.478Z,99.90
2022-09-20T00:19:20.470Z,99.90
2022-09-20T00:21:49.822Z,99.90
2022-09-20T00:24:18.830Z,99.90
2022-09-20T00:26:47.778Z,99.90
2022-09-20T00:29:16.724Z,99.90
2022-09-20T00:31:45.742Z,99.90
2022-09-20T00:34:33.368Z,99.90
2022-09-20T00:37:02.288Z,99.90
2022-09-20T00:39:31.293Z,99.90
2022-09-20T00:42:00.393Z,99.90
2022-09-20T00:44:48.892Z,99.90
2022-09-20T00:47:27.991Z,99.90
2022-09-20T00:50:19.775Z,99.90
2022-09-20T00:52:53.876Z,99.90
2022-09-20T00:55:23.877Z,99.90
2022-09-20T00:57:53.142Z,99.90
2022-09-20T01:00:22.504Z,99.90
2022-09-20T01:02:58.958Z,99.90
2022-09-20T01:05:28.420Z,99.90
2022-09-20T01:07:58.402Z,99.90
2022-09-20T01:10:27.339Z,99.90
2022-09-20T01:12:56.566Z,99.90
2022-09-20T01:15:28.938Z,99.80
2022-09-20T01:18:00.657Z,99.50
2022-09-20T01:20:36.989Z,99.20
2022-09-20T01:23:33.465Z,98.70
2022-09-20T01:26:20.655Z,98.60
2022-09-20T01:28:52.684Z,98.00
2022-09-20T01:31:29.928Z,97.50
2022-09-20T01:34:09.736Z,97.10
2022-09-20T01:36:53.958Z,97.20
2022-09-20T01:39:40.491Z,96.80
2022-09-20T01:42:15.814Z,95.90
2022-09-20T01:45:03.169Z,95.80
2022-09-20T01:48:06.174Z,95.90
2022-09-20T01:50:56.574Z,95.90
2022-09-20T01:53:28.434Z,96.10
2022-09-20T01:56:38.881Z,95.80
2022-09-20T01:59:29.638Z,95.80
2022-09-20T02:02:20.616Z,95.80
2022-09-20T02:05:30.741Z,95.70
2022-09-20T02:08:02.844Z,95.30
2022-09-20T02:10:43.962Z,95.30
2022-09-20T02:13:26.667Z,95.10
2022-09-20T02:16:13.110Z,95.10
2022-09-20T02:19:12.741Z,95.10
2022-09-20T02:21:56.968Z,95.00
2022-09-20T02:24:48.116Z,95.00
2022-09-20T02:27:47.465Z,94.90
2022-09-20T02:30:37.666Z,94.70
2022-09-20T02:33:25.158Z,94.60
2022-09-20T02:36:26.108Z,94.20
2022-09-20T02:39:12.077Z,93.50
2022-09-20T02:42:12.031Z,94.30
2022-09-20T02:45:10.778Z,94.30
2022-09-20T02:47:40.917Z,93.80
2022-09-20T02:50:27.933Z,93.80
2022-09-20T02:53:00.148Z,93.30
2022-09-20T02:56:02.595Z,93.20
2022-09-20T02:58:56.053Z,92.70
2022-09-20T03:01:34.209Z,92.90
2022-09-20T03:04:21.607Z,92.50
2022-09-20T03:10:07.760Z,92.10
2022-09-20T03:12:54.176Z,91.60
2022-09-20T03:15:59.822Z,90.40
2022-09-20T03:18:55.381Z,90.80
2022-09-20T03:21:37.816Z,90.50
2022-09-20T03:24:15.198Z,90.80
2022-09-20T03:26:53.317Z,90.70
2022-09-20T03:29:22.118Z,90.80
2022-09-20T03:32:22.885Z,89.90
2022-09-20T03:35:19.070Z,85.90
2022-09-20T03:37:50.974Z,88.30
2022-09-20T03:40:29.474Z,88.80
2022-09-20T03:43:21.387Z,88.30
2022-09-20T03:46:19.680Z,87.80
2022-09-20T03:49:17.191Z,87.40
2022-09-20T03:52:04.280Z,86.60
2022-09-20T03:54:47.178Z,87.20
2022-09-20T03:57:44.432Z,87.30
2022-09-20T04:00:24.702Z,87.60
2022-09-20T04:03:11.394Z,86.00
2022-09-20T04:06:16.641Z,86.70
2022-09-20T04:09:13.361Z,83.70
2022-09-20T04:12:29.932Z,83.30
2022-09-20T04:15:23.338Z,82.10
2022-09-20T04:18:22.757Z,81.10
2022-09-20T04:21:24.974Z,81.60
2022-09-20T04:24:24.786Z,79.70
2022-09-20T04:27:14.867Z,83.40
2022-09-20T04:29:59.522Z,82.60
2022-09-20T04:32:57.695Z,83.90
2022-09-20T04:36:03.041Z,83.50
2022-09-20T04:38:32.640Z,85.60
2022-09-20T04:41:21.737Z,85.90
2022-09-20T04:44:15.089Z,80.50
2022-09-20T04:46:56.395Z,82.70
2022-09-20T04:49:44.823Z,83.70
2022-09-20T04:52:16.982Z,83.40
2022-09-20T04:55:19.511Z,82.70
2022-09-20T04:58:34.986Z,81.80
2022-09-20T05:01:20.314Z,80.10
2022-09-20T05:03:55.392Z,81.90
2022-09-20T05:06:42.415Z,83.20
2022-09-20T05:09:14.809Z,81.80
2022-09-20T05:11:48.110Z,82.90
2022-09-20T05:14:58.603Z,84.40
2022-09-20T05:17:53.198Z,83.30
2022-09-20T05:20:47.504Z,82.40
2022-09-20T05:23:58.474Z,83.10
2022-09-20T05:26:50.215Z,82.90
2022-09-20T05:29:27.706Z,80.10
2022-09-20T05:32:24.476Z,83.10
2022-09-20T05:35:14.441Z,81.30
2022-09-20T05:38:07.974Z,81.00
2022-09-20T05:40:55.527Z,80.30
2022-09-20T05:43:34.178Z,78.40
2022-09-20T05:46:24.193Z,81.70
2022-09-20T05:48:58.664Z,80.50
2022-09-20T05:52:04.593Z,78.60
2022-09-20T05:54:58.080Z,81.10
2022-09-20T05:57:41.985Z,82.30
2022-09-20T06:00:18.610Z,82.70
2022-09-20T06:02:55.188Z,77.30
2022-09-20T06:05:55.316Z,81.20
2022-09-20T06:08:44.619Z,81.40
2022-09-20T06:11:47.319Z,77.30
2022-09-20T06:14:22.240Z,80.10
2022-09-20T06:17:12.214Z,82.00
2022-09-20T06:20:22.649Z,79.30
2022-09-20T06:23:00.347Z,80.00
2022-09-20T06:25:42.291Z,78.20
2022-09-20T06:28:25.690Z,79.90
2022-09-20T06:30:57.100Z,80.80
2022-09-20T06:33:30.115Z,81.00
2022-09-20T06:36:24.207Z,82.60
2022-09-20T06:39:17.445Z,82.80
2022-09-20T06:41:47.231Z,78.70
2022-09-20T06:44:16.136Z,82.30
2022-09-20T06:46:47.339Z,82.40
2022-09-20T06:49:16.377Z,82.00
2022-09-20T06:51:45.424Z,82.20
2022-09-20T06:54:19.784Z,80.80
2022-09-20T06:56:50.714Z,81.40
2022-09-20T06:59:19.652Z,82.60
2022-09-20T07:01:48.847Z,82.90
2022-09-20T07:04:18.185Z,83.00
2022-09-20T07:06:47.079Z,82.90
2022-09-20T07:09:15.999Z,83.10
2022-09-20T07:11:47.488Z,83.00
2022-09-20T07:14:17.523Z,83.30
2022-09-20T07:16:46.560Z,83.20
2022-09-20T07:19:15.576Z,82.80
2022-09-20T07:21:47.751Z,83.40
2022-09-20T07:24:16.651Z,83.60
2022-09-20T07:27:03.706Z,83.80
2022-09-20T07:29:32.757Z,83.30
2022-09-20T07:32:01.876Z,83.80
2022-09-20T07:34:30.915Z,84.00
2022-09-20T07:37:01.083Z,84.30
2022-09-20T07:39:30.121Z,84.20
2022-09-20T07:41:59.273Z,84.20
2022-09-20T07:44:29.141Z,84.50
2022-09-20T07:47:00.512Z,84.70
2022-09-20T07:49:33.765Z,84.60
2022-09-20T07:52:04.696Z,85.30
2022-09-20T07:54:33.597Z,84.40
2022-09-20T07:57:02.857Z,85.00
2022-09-20T07:59:31.778Z,85.20
2022-09-20T08:02:01.843Z,84.60
2022-09-20T08:04:30.901Z,85.20
2022-09-20T08:06:59.915Z,84.80
2022-09-20T08:09:28.796Z,84.70
2022-09-20T08:14:05.324Z,84.60
2022-09-20T08:14:49.703Z,85.00
2022-09-20T08:17:18.650Z,84.80
2022-09-20T08:19:50.140Z,84.80
2022-09-20T08:22:19.114Z,85.00
2022-09-20T08:24:48.206Z,85.40
2022-09-20T08:27:17.109Z,85.50
2022-09-20T08:29:45.994Z,85.20
2022-09-20T08:32:14.871Z,85.30
2022-09-20T08:34:43.804Z,85.60
2022-09-20T08:37:12.707Z,85.70
2022-09-20T08:39:57.794Z,85.90
2022-09-20T08:42:44.474Z,86.30
2022-09-20T08:45:23.219Z,86.30
2022-09-20T08:48:07.563Z,86.40
2022-09-20T08:50:37.944Z,86.20
2022-09-20T08:53:07.262Z,86.30
2022-09-20T08:55:40.556Z,86.20
2022-09-20T08:58:16.049Z,86.20
2022-09-20T09:00:48.032Z,86.10
2022-09-20T09:03:19.049Z,86.40
2022-09-20T09:05:54.397Z,86.00
2022-09-20T09:08:54.776Z,85.90
2022-09-20T09:11:24.555Z,85.90
2022-09-20T09:14:31.776Z,86.00
2022-09-20T09:17:01.930Z,85.70
2022-09-20T09:19:35.237Z,85.60
2022-09-20T09:22:08.338Z,85.70
2022-09-20T09:24:37.352Z,85.60
2022-09-20T09:27:28.678Z,85.70
2022-09-20T09:30:01.125Z,85.50
2022-09-20T09:32:34.874Z,85.80
2022-09-20T09:35:24.760Z,85.60
2022-09-20T09:38:02.430Z,84.60
2022-09-20T09:40:33.605Z,85.30
2022-09-20T09:43:05.236Z,85.40
2022-09-20T09:45:42.209Z,85.40
2022-09-20T09:48:26.715Z,85.30
2022-09-20T09:51:16.707Z,85.30
2022-09-20T09:53:46.686Z,85.10
2022-09-20T09:56:33.490Z,85.50
2022-09-20T09:59:46.517Z,85.50
2022-09-20T10:02:33.608Z,85.40
2022-09-20T10:05:05.824Z,85.60
2022-09-20T10:07:55.474Z,85.60
2022-09-20T10:10:52.147Z,85.90
2022-09-20T10:13:45.267Z,86.10
2022-09-20T10:16:33.291Z,86.20
2022-09-20T10:19:10.037Z,86.30
2022-09-20T10:21:57.301Z,86.60
2022-09-20T10:24:46.446Z,86.80
2022-09-20T10:27:32.532Z,87.10
2022-09-20T10:30:18.457Z,87.60
2022-09-20T10:33:02.874Z,87.60
2022-09-20T10:35:54.763Z,87.80
2022-09-20T10:38:29.796Z,88.20
2022-09-20T10:41:22.645Z,88.10
2022-09-20T10:44:09.723Z,88.10
2022-09-20T10:47:09.280Z,88.30
2022-09-20T10:49:52.525Z,88.50
2022-09-20T10:52:50.369Z,88.50
2022-09-20T10:55:28.126Z,88.70
2022-09-20T10:58:31.695Z,88.60
2022-09-20T11:01:21.992Z,88.80
2022-09-20T11:03:50.949Z,88.90
2022-09-20T11:06:28.080Z,89.00
2022-09-20T11:09:01.489Z,89.00
2022-09-20T11:11:46.898Z,89.10
2022-09-20T11:14:34.863Z,89.30
2022-09-20T11:17:17.599Z,89.40
2022-09-20T11:20:09.254Z,89.60
2022-09-20T11:22:39.981Z,90.00
2022-09-20T11:25:22.297Z,89.50
2022-09-20T11:27:59.355Z,89.70
2022-09-20T11:30:30.636Z,90.10
2022-09-20T11:33:20.614Z,90.00
2022-09-20T11:36:02.881Z,90.20
2022-09-20T11:38:39.193Z,90.30
2022-09-20T11:41:36.682Z,90.30
2022-09-20T11:44:13.685Z,90.30
2022-09-20T11:46:54.088Z,90.30
2022-09-20T11:49:28.115Z,90.30
2022-09-20T11:52:18.608Z,90.30
2022-09-20T11:55:00.084Z,90.30
2022-09-20T11:57:29.559Z,90.30
2022-09-20T12:00:06.952Z,90.30
2022-09-20T12:02:55.823Z,90.40
2022-09-20T12:05:34.763Z,90.40
2022-09-20T12:08:09.744Z,90.50
2022-09-20T12:10:40.913Z,90.40
2022-09-20T12:13:24.579Z,90.50
2022-09-20T12:16:04.766Z,90.50
2022-09-20T12:18:36.899Z,90.60
2022-09-20T12:21:15.018Z,90.60
2022-09-20T12:23:59.602Z,90.70
2022-09-20T12:26:28.075Z,90.80
2022-09-20T12:29:24.345Z,91.10
2022-09-20T12:31:55.212Z,90.90
2022-09-20T12:34:24.085Z,90.90
2022-09-20T12:36:55.549Z,90.90
2022-09-20T12:39:41.194Z,91.00
2022-09-20T12:42:12.973Z,91.10
2022-09-20T12:44:42.987Z,91.00
2022-09-20T12:47:14.754Z,91.10
2022-09-20T12:50:21.712Z,91.10
2022-09-20T12:52:59.213Z,91.00
2022-09-20T12:56:03.308Z,91.00
2022-09-20T12:58:54.610Z,91.00
2022-09-20T13:01:23.610Z,91.00
2022-09-20T13:03:53.039Z,91.00
2022-09-20T13:06:22.179Z,91.00
2022-09-20T13:09:03.464Z,91.10
2022-09-20T13:11:52.130Z,91.20
2022-09-20T13:14:32.486Z,91.20
2022-09-20T13:17:20.791Z,91.30
2022-09-20T13:19:52.166Z,91.30
2022-09-20T13:22:38.721Z,91.30
2022-09-20T13:25:15.041Z,91.30
2022-09-20T13:28:10.842Z,91.30
2022-09-20T13:30:41.689Z,91.40
2022-09-20T13:33:21.897Z,91.40
2022-09-20T13:35:55.530Z,91.40
2022-09-20T13:38:26.275Z,91.40
2022-09-20T13:41:04.948Z,91.50
2022-09-20T13:43:39.206Z,91.50
2022-09-20T13:46:20.372Z,91.50
2022-09-20T13:48:54.239Z,91.60
2022-09-20T13:51:28.608Z,91.60
2022-09-20T13:54:20.168Z,91.70
2022-09-20T13:56:50.104Z,92.00
2022-09-20T13:59:20.352Z,91.80
2022-09-20T14:01:55.601Z,91.90
2022-09-20T14:04:29.866Z,91.90
2022-09-20T14:07:01.850Z,91.90
2022-09-20T14:09:37.980Z,91.90
2022-09-20T14:12:08.132Z,92.00
2022-09-20T14:14:37.892Z,92.10
2022-09-20T14:17:09.995Z,92.10
2022-09-20T14:19:43.538Z,92.10
2022-09-20T14:22:28.548Z,92.10
2022-09-20T14:25:15.679Z,92.20
2022-09-20T14:27:44.737Z,92.10
2022-09-20T14:30:34.634Z,92.20
2022-09-20T14:33:04.995Z,92.40
2022-09-20T14:35:34.057Z,92.30
2022-09-20T14:38:09.799Z,92.40
2022-09-20T14:40:48.302Z,92.40
2022-09-20T14:43:37.243Z,92.60
2022-09-20T14:46:18.781Z,92.80
2022-09-20T14:48:47.814Z,92.70
2022-09-20T14:51:20.056Z,92.70
2022-09-20T14:53:54.029Z,92.70
2022-09-20T14:56:34.299Z,92.80
2022-09-20T14:59:15.048Z,93.60
2022-09-20T15:01:46.979Z,93.20
2022-09-20T15:04:23.943Z,93.10
2022-09-20T15:06:54.215Z,93.20
2022-09-20T15:09:23.929Z,93.10
2022-09-20T15:12:20.233Z,93.20
2022-09-20T15:14:50.169Z,93.40
2022-09-20T15:17:20.196Z,93.30
2022-09-20T15:19:50.617Z,93.30
2022-09-20T15:22:19.519Z,93.40
2022-09-20T15:24:48.519Z,93.40
2022-09-20T15:27:17.424Z,93.90
2022-09-20T15:29:46.293Z,93.60
2022-09-20T15:32:15.256Z,94.00
2022-09-20T15:34:44.156Z,93.70
2022-09-20T15:37:13.076Z,93.80
2022-09-20T15:39:42.037Z,93.80
2022-09-20T15:42:10.941Z,93.80
2022-09-20T15:44:39.863Z,93.90
2022-09-20T15:47:11.808Z,93.90
2022-09-20T15:49:47.656Z,94.00
2022-09-20T15:52:16.699Z,94.10
2022-09-20T15:54:45.590Z,94.20
2022-09-20T15:57:14.423Z,94.10
2022-09-20T15:59:43.505Z,94.20
2022-09-20T16:02:13.825Z,94.20
2022-09-20T16:04:42.777Z,94.20
2022-09-20T16:07:12.046Z,94.30
2022-09-20T16:09:40.943Z,94.30
2022-09-20T16:12:10.460Z,94.40
2022-09-20T16:14:39.588Z,94.50
2022-09-20T16:17:08.570Z,94.40
2022-09-20T16:19:39.165Z,94.50
2022-09-20T16:22:08.340Z,94.50
2022-09-20T16:24:38.505Z,94.50
2022-09-20T16:27:09.646Z,94.50
2022-09-20T16:29:38.616Z,94.60
2022-09-20T16:32:07.553Z,94.60
2022-09-20T16:34:37.914Z,94.60
2022-09-20T16:37:11.471Z,94.60
2022-09-20T16:39:43.072Z,94.60
2022-09-20T16:42:14.331Z,94.80
2022-09-20T16:44:44.578Z,94.80
2022-09-20T16:47:27.290Z,94.80
2022-09-20T16:49:58.622Z,94.90
2022-09-20T16:52:34.957Z,95.00
2022-09-20T16:55:14.278Z,95.10
2022-09-20T16:57:43.808Z,95.20
2022-09-20T17:00:13.235Z,95.10
2022-09-20T17:02:47.098Z,95.10
2022-09-20T17:05:16.786Z,95.20
2022-09-20T17:07:45.781Z,95.20
2022-09-20T17:10:14.757Z,95.20
2022-09-20T17:12:45.870Z,95.30
2022-09-20T17:15:14.934Z,95.30
2022-09-20T17:17:43.790Z,95.30
2022-09-20T17:20:14.235Z,95.30
2022-09-20T17:22:43.605Z,95.40
2022-09-20T17:25:13.196Z,95.40
2022-09-20T17:27:42.152Z,95.40
2022-09-20T17:30:11.690Z,95.40
2022-09-20T17:32:40.584Z,95.50
2022-09-20T17:35:10.490Z,95.60
2022-09-20T17:37:39.317Z,95.90
2022-09-20T17:40:08.906Z,95.60
2022-09-20T17:42:39.099Z,95.60
2022-09-20T17:45:08.725Z,95.70
2022-09-20T17:47:37.529Z,95.70
2022-09-20T17:50:06.768Z,95.80
2022-09-20T17:52:35.714Z,95.80
2022-09-20T17:55:04.709Z,95.80
2022-09-20T17:57:33.614Z,96.00
2022-09-20T18:00:02.911Z,96.00
2022-09-20T18:02:32.671Z,96.00
2022-09-20T18:05:01.599Z,96.10
2022-09-20T18:07:30.563Z,96.10
2022-09-20T18:09:59.947Z,96.10
2022-09-20T18:12:28.797Z,96.10
2022-09-20T18:14:58.445Z,96.20
2022-09-20T18:17:27.363Z,96.20
2022-09-20T18:19:56.259Z,96.30
2022-09-20T18:22:25.152Z,96.40
2022-09-20T18:24:53.951Z,96.50
2022-09-20T18:27:22.816Z,96.50
2022-09-20T18:29:51.865Z,96.60
2022-09-20T18:32:20.690Z,96.60
2022-09-20T18:34:52.390Z,96.60
2022-09-20T18:37:21.302Z,96.70
2022-09-20T18:39:50.667Z,96.70
2022-09-20T18:42:19.515Z,96.80
2022-09-20T18:44:50.680Z,96.70
2022-09-20T18:47:20.387Z,96.70
2022-09-20T18:49:49.258Z,96.80
2022-09-20T18:52:25.600Z,96.90
2022-09-20T18:54:57.045Z,97.00
2022-09-20T18:57:26.261Z,97.00
2022-09-20T19:00:00.679Z,97.10
2022-09-20T19:02:56.530Z,97.10
2022-09-20T19:05:44.922Z,97.10
2022-09-20T19:08:29.818Z,97.30
2022-09-20T19:11:05.500Z,97.40
2022-09-20T19:13:54.458Z,97.30
2022-09-20T19:16:25.543Z,97.40
2022-09-20T19:19:15.959Z,97.40
2022-09-20T19:22:23.037Z,97.70
2022-09-20T19:25:10.400Z,97.80
2022-09-20T19:27:39.677Z,98.00
2022-09-20T19:30:09.211Z,97.70
2022-09-20T19:32:38.386Z,97.70
2022-09-20T19:35:16.578Z,97.70
2022-09-20T19:38:07.675Z,97.70
2022-09-20T19:40:53.858Z,97.70
2022-09-20T19:43:36.165Z,97.80
2022-09-20T19:46:21.169Z,97.90
2022-09-20T19:49:43.268Z,97.90
2022-09-20T19:52:15.187Z,98.00
2022-09-20T19:54:47.600Z,97.90
2022-09-20T19:57:48.146Z,97.90
2022-09-20T20:00:19.970Z,98.20
2022-09-20T20:02:49.516Z,97.90
2022-09-20T20:05:21.223Z,98.00
2022-09-20T20:08:13.705Z,97.80
2022-09-20T20:11:06.848Z,98.30
2022-09-20T20:13:56.760Z,98.30
2022-09-20T20:16:53.454Z,98.00
2022-09-20T20:19:46.137Z,98.20
2022-09-20T20:22:24.687Z,98.50
2022-09-20T20:24:55.173Z,98.30
2022-09-20T20:27:26.338Z,98.20
2022-09-20T20:29:56.435Z,98.20
2022-09-20T20:32:26.941Z,98.20
2022-09-20T20:34:55.833Z,98.20
2022-09-20T20:37:27.372Z,98.20
2022-09-20T20:39:56.350Z,98.30
2022-09-20T20:42:25.281Z,98.30
2022-09-20T20:44:54.194Z,98.40
2022-09-20T20:47:24.180Z,98.50
2022-09-20T20:49:54.635Z,98.50
2022-09-20T20:52:24.047Z,98.50
2022-09-20T20:54:53.074Z,98.50
2022-09-20T20:57:21.912Z,98.60
2022-09-20T20:59:50.782Z,98.70
2022-09-20T21:02:20.664Z,98.70
2022-09-20T21:04:49.522Z,98.70
2022-09-20T21:07:19.199Z,98.70
2022-09-20T21:09:48.112Z,98.70
2022-09-20T21:12:16.956Z,98.70
2022-09-20T21:14:46.279Z,98.70
2022-09-20T21:17:15.281Z,98.70
2022-09-20T21:19:44.257Z,98.80
2022-09-20T21:22:33.217Z,98.80
2022-09-20T21:25:02.103Z,98.80
2022-09-20T21:27:31.149Z,98.80
2022-09-20T21:30:00.120Z,98.80
2022-09-20T21:32:28.964Z,98.80
2022-09-20T21:34:58.205Z,98.80
2022-09-20T21:37:27.268Z,98.90
2022-09-20T21:39:56.230Z,98.80
2022-09-20T21:42:26.650Z,98.80
2022-09-20T21:44:55.578Z,98.80
2022-09-20T21:47:24.508Z,98.80
2022-09-20T21:49:53.317Z,98.90
2022-09-20T21:52:22.165Z,98.90
2022-09-20T21:54:52.168Z,98.90
2022-09-20T21:57:20.972Z,98.90
2022-09-20T21:59:50.287Z,99.00
2022-09-20T22:02:19.161Z,99.00
2022-09-20T22:04:48.037Z,99.00
2022-09-20T22:07:17.639Z,99.10
2022-09-20T22:09:47.031Z,99.10
2022-09-20T22:12:15.911Z,99.20
2022-09-20T22:14:45.604Z,99.20
2022-09-20T22:17:14.501Z,99.40
2022-09-20T22:19:43.463Z,99.70
2022-09-20T22:22:12.348Z,99.40
2022-09-20T22:24:41.211Z,99.50
2022-09-20T22:27:10.027Z,99.60
2022-09-20T22:29:38.910Z,99.60
2022-09-20T22:32:07.872Z,99.80
2022-09-20T22:34:36.770Z,99.90
2022-09-20T22:37:05.730Z,99.90
2022-09-20T22:39:34.734Z,99.90
2022-09-20T22:42:03.689Z,99.90
2022-09-20T22:44:32.502Z,99.90
2022-09-20T22:47:01.322Z,99.90
2022-09-20T22:49:30.223Z,99.90
2022-09-20T22:51:59.111Z,99.90
2022-09-20T22:54:27.996Z,99.90
2022-09-20T22:56:56.906Z,99.90
2022-09-20T22:59:25.821Z,99.90
2022-09-20T23:01:54.697Z,99.90
2022-09-20T23:04:24.539Z,99.90
2022-09-20T23:06:57.879Z,99.90
2022-09-20T23:09:31.398Z,99.90
2022-09-20T23:12:00.278Z,99.90
2022-09-20T23:14:29.143Z,99.90
2022-09-20T23:16:58.054Z,99.90
2022-09-20T23:19:27.525Z,99.90
2022-09-20T23:21:56.369Z,99.90
2022-09-20T23:24:25.271Z,99.90
2022-09-20T23:26:54.142Z,99.90
2022-09-20T23:29:23.638Z,99.90
2022-09-20T23:31:52.551Z,99.80
2022-09-20T23:34:21.378Z,99.70
2022-09-20T23:36:50.275Z,99.80
2022-09-20T23:39:19.159Z,99.70
2022-09-20T23:41:51.079Z,99.50
2022-09-20T23:44:20.424Z,99.50
2022-09-20T23:46:49.365Z,99.30
2022-09-20T23:49:18.441Z,99.30
2022-09-20T23:51:47.367Z,99.20
2022-09-20T23:54:16.230Z,99.40
2022-09-20T23:56:45.103Z,99.10
2022-09-20T23:59:13.920Z,99.10
